Quellon, Chile
Current Conditions -  °F | °C
As of 10:00 PM on Sunday 25 Jan 2015 (Local Time) from SCPQ Reporting Station
Light Rain Light Rain  
Wind Chill: 61°   Ceiling: Unl
Heat Index: 61°   Visibility: 6mi
Dew Point: 54°   Wind: 12mph
Humidity: 77%   Direction: 320°NW
Pressure: 29.88"   Gusts: NA
Location:  43.14°S, 73.66°W
Report Text: SCPQ 260200Z AUTO 32010KT 9999 -RA NCD 16/12 Q1012
Loading
Personal Weather Stations






























Interactive Weather Map New forecast layout! Learn more

10-Day Weather Forecast

Advertisements
Track Severe Weather on mobile